createdAt,value
2023-03-28T00:01:41.693Z,2.58
2023-03-28T00:04:43.309Z,1.90
2023-03-28T00:10:20.291Z,1.67
2023-03-28T00:13:50.654Z,2.13
2023-03-28T00:16:04.019Z,1.40
2023-03-28T00:18:35.569Z,2.22
2023-03-28T00:21:06.077Z,1.70
2023-03-28T00:23:46.637Z,2.88
2023-03-28T00:26:39.341Z,1.42
2023-03-28T00:29:36.225Z,2.40
2023-03-28T00:32:07.380Z,2.67
2023-03-28T00:34:50.781Z,2.40
2023-03-28T00:40:07.538Z,2.35
2023-03-28T00:43:19.464Z,2.72
2023-03-28T00:45:48.839Z,2.55
2023-03-28T00:48:46.666Z,1.77
2023-03-28T00:51:37.344Z,2.10
2023-03-28T00:54:21.173Z,2.47
2023-03-28T00:56:57.073Z,2.50
2023-03-28T00:59:29.104Z,1.58
2023-03-28T01:01:56.268Z,1.92
2023-03-28T01:04:29.595Z,2.35
2023-03-28T01:06:59.007Z,2.50
2023-03-28T01:09:28.160Z,2.30
2023-03-28T01:11:58.560Z,1.40
2023-03-28T01:14:30.806Z,2.38
2023-03-28T01:17:18.161Z,2.83
2023-03-28T01:20:03.999Z,1.20
2023-03-28T01:22:39.578Z,1.60
2023-03-28T01:25:52.366Z,2.05
2023-03-28T01:28:39.359Z,1.58
2023-03-28T01:31:19.819Z,1.30
2023-03-28T01:34:24.904Z,1.40
2023-03-28T01:37:09.134Z,0.98
2023-03-28T01:40:21.089Z,1.50
2023-03-28T01:43:01.132Z,2.70
2023-03-28T01:48:26.449Z,2.78
2023-03-28T01:51:36.763Z,1.65
2023-03-28T01:54:30.234Z,1.93
2023-03-28T01:57:00.020Z,2.33
2023-03-28T02:00:11.989Z,2.22
2023-03-28T02:03:03.183Z,2.55
2023-03-28T02:05:37.385Z,1.85
2023-03-28T02:08:10.568Z,1.90
2023-03-28T02:11:03.648Z,2.50
2023-03-28T02:13:44.454Z,2.35
2023-03-28T02:16:42.077Z,1.65
2023-03-28T02:19:27.219Z,2.25
2023-03-28T02:22:22.172Z,2.97
2023-03-28T02:25:10.293Z,1.92
2023-03-28T02:27:39.459Z,2.35
2023-03-28T02:30:21.481Z,1.88
2023-03-28T02:32:59.037Z,2.25
2023-03-28T02:35:40.013Z,2.05
2023-03-28T02:38:38.488Z,2.05
2023-03-28T02:41:29.933Z,1.58
2023-03-28T02:44:10.241Z,2.13
2023-03-28T02:46:49.142Z,2.70
2023-03-28T02:49:50.474Z,2.22
2023-03-28T02:52:35.309Z,2.05
2023-03-28T02:55:13.245Z,2.70
2023-03-28T02:58:01.822Z,1.65
2023-03-28T03:00:29.864Z,1.38
2023-03-28T03:03:02.916Z,1.98
2023-03-28T03:07:57.428Z,2.22
2023-03-28T03:10:24.450Z,1.80
2023-03-28T03:12:51.748Z,2.08
2023-03-28T03:15:19.034Z,1.10
2023-03-28T03:17:49.512Z,1.63
2023-03-28T03:20:26.051Z,1.42
2023-03-28T03:22:54.587Z,1.52
2023-03-28T03:25:21.729Z,1.90
2023-03-28T03:27:56.836Z,2.17
2023-03-28T03:30:23.864Z,1.58
2023-03-28T03:33:16.775Z,1.75
2023-03-28T03:35:46.937Z,1.52
2023-03-28T03:38:18.985Z,2.15
2023-03-28T03:40:46.075Z,1.30
2023-03-28T03:43:14.664Z,1.40
2023-03-28T03:45:42.025Z,2.10
2023-03-28T03:48:09.595Z,1.63
2023-03-28T03:50:37.632Z,2.05
2023-03-28T03:53:11.397Z,2.25
2023-03-28T03:55:45.547Z,2.25
2023-03-28T03:58:12.640Z,2.33
2023-03-28T04:00:40.406Z,2.38
2023-03-28T04:03:25.638Z,1.67
2023-03-28T04:05:55.158Z,1.92
2023-03-28T04:08:22.587Z,1.92
2023-03-28T04:10:51.518Z,1.38
2023-03-28T04:13:18.467Z,1.55
2023-03-28T04:15:52.177Z,1.40
2023-03-28T04:18:26.975Z,2.33
2023-03-28T04:20:55.333Z,2.63
2023-03-28T04:23:43.713Z,1.65
2023-03-28T04:26:29.806Z,1.73
2023-03-28T04:29:09.928Z,1.85
2023-03-28T04:31:39.956Z,1.60
2023-03-28T04:34:07.499Z,1.55
2023-03-28T04:36:43.790Z,1.45
2023-03-28T04:39:11.445Z,1.40
2023-03-28T04:42:06.544Z,2.08
2023-03-28T04:44:52.426Z,1.40
2023-03-28T04:47:20.253Z,1.63
2023-03-28T04:49:48.782Z,1.55
2023-03-28T04:52:16.196Z,1.88
2023-03-28T04:54:45.943Z,1.20
2023-03-28T04:57:16.061Z,1.27
2023-03-28T04:59:54.672Z,1.15
2023-03-28T05:02:41.610Z,1.23
2023-03-28T05:05:12.299Z,1.73
2023-03-28T05:07:42.359Z,1.67
2023-03-28T05:10:11.274Z,1.52
2023-03-28T05:12:41.153Z,1.13
2023-03-28T05:15:08.790Z,0.98
2023-03-28T05:17:47.421Z,1.30
2023-03-28T05:20:34.783Z,1.25
2023-03-28T05:23:02.689Z,1.48
2023-03-28T05:25:30.444Z,1.67
2023-03-28T05:27:57.774Z,1.10
2023-03-28T05:30:25.328Z,1.45
2023-03-28T05:32:56.091Z,2.15
2023-03-28T05:35:23.200Z,1.13
2023-03-28T05:37:51.512Z,1.35
2023-03-28T05:40:18.943Z,2.30
2023-03-28T05:42:47.193Z,1.15
2023-03-28T05:45:16.344Z,2.20
2023-03-28T05:48:01.634Z,1.40
2023-03-28T05:50:30.607Z,1.42
2023-03-28T05:53:03.923Z,2.00
2023-03-28T05:55:31.100Z,1.35
2023-03-28T05:57:58.310Z,1.63
2023-03-28T06:00:33.057Z,1.83
2023-03-28T06:03:00.496Z,2.17
2023-03-28T06:05:35.649Z,1.50
2023-03-28T06:08:09.191Z,2.53
2023-03-28T06:10:37.139Z,1.90
2023-03-28T06:13:17.793Z,2.00
2023-03-28T06:15:48.435Z,2.22
2023-03-28T06:18:17.084Z,1.50
2023-03-28T06:20:46.336Z,2.33
2023-03-28T06:23:13.392Z,2.53
2023-03-28T06:25:41.178Z,2.00
2023-03-28T06:28:08.272Z,2.45
2023-03-28T06:30:53.030Z,1.58
2023-03-28T06:33:20.421Z,2.13
2023-03-28T06:35:49.485Z,2.00
2023-03-28T06:38:19.522Z,2.03
2023-03-28T06:40:50.825Z,1.85
2023-03-28T06:43:20.020Z,2.22
2023-03-28T06:45:57.801Z,2.30
2023-03-28T06:48:32.199Z,2.63
2023-03-28T06:51:23.003Z,2.00
2023-03-28T06:53:50.353Z,2.28
2023-03-28T06:56:22.561Z,2.03
2023-03-28T06:58:49.640Z,1.85
2023-03-28T07:01:20.839Z,1.50
2023-03-28T07:03:59.707Z,1.30
2023-03-28T07:06:28.099Z,1.42
2023-03-28T07:08:57.332Z,1.30
2023-03-28T07:11:33.837Z,1.60
2023-03-28T07:14:03.709Z,2.47
2023-03-28T07:16:30.787Z,1.42
2023-03-28T07:18:59.794Z,1.48
2023-03-28T07:21:34.631Z,1.15
2023-03-28T07:24:05.580Z,1.08
2023-03-28T07:26:48.623Z,1.85
2023-03-28T07:29:15.500Z,1.75
2023-03-28T07:31:42.867Z,1.50
2023-03-28T07:34:10.039Z,1.38
2023-03-28T07:36:39.726Z,1.02
2023-03-28T07:39:16.400Z,1.10
2023-03-28T07:41:45.075Z,1.30
2023-03-28T07:44:12.068Z,0.98
2023-03-28T07:46:40.054Z,1.15
2023-03-28T07:49:07.105Z,1.30
2023-03-28T07:51:35.090Z,1.95
2023-03-28T07:54:02.105Z,1.30
2023-03-28T07:56:29.203Z,1.65
2023-03-28T07:59:07.491Z,1.65
2023-03-28T08:01:34.518Z,1.40
2023-03-28T08:04:03.448Z,1.63
2023-03-28T08:06:43.210Z,1.48
2023-03-28T08:09:13.577Z,0.82
2023-03-28T08:11:47.108Z,1.60
2023-03-28T08:14:17.799Z,1.10
2023-03-28T08:16:45.812Z,1.48
2023-03-28T08:19:13.277Z,1.00
2023-03-28T08:22:03.369Z,0.80
2023-03-28T08:24:36.593Z,0.98
2023-03-28T08:27:15.698Z,1.00
2023-03-28T08:29:45.304Z,1.20
2023-03-28T08:32:12.412Z,1.52
2023-03-28T08:34:40.649Z,1.20
2023-03-28T08:37:19.681Z,1.20
2023-03-28T08:39:51.297Z,0.93
2023-03-28T08:42:39.093Z,1.08
2023-03-28T08:45:31.320Z,1.02
2023-03-28T08:48:07.407Z,0.88
2023-03-28T08:50:56.864Z,1.00
2023-03-28T08:53:37.345Z,1.25
2023-03-28T08:56:07.178Z,0.98
2023-03-28T08:58:51.674Z,1.15
2023-03-28T09:01:22.202Z,1.55
2023-03-28T09:03:53.542Z,1.40
2023-03-28T09:06:40.054Z,1.20
2023-03-28T09:09:16.437Z,0.75
2023-03-28T09:11:54.868Z,1.17
2023-03-28T09:14:27.982Z,1.40
2023-03-28T09:17:12.423Z,1.10
2023-03-28T09:19:54.502Z,1.38
2023-03-28T09:22:46.785Z,1.00
2023-03-28T09:25:36.742Z,1.10
2023-03-28T09:28:15.505Z,1.90
2023-03-28T09:30:48.820Z,1.30
2023-03-28T09:33:26.043Z,1.92
2023-03-28T09:35:56.325Z,1.70
2023-03-28T09:38:35.404Z,1.35
2023-03-28T09:41:18.881Z,2.10
2023-03-28T09:43:57.347Z,1.67
2023-03-28T09:46:48.158Z,1.92
2023-03-28T09:49:23.819Z,2.33
2023-03-28T09:51:58.279Z,1.73
2023-03-28T09:54:37.336Z,1.75
2023-03-28T09:57:05.886Z,1.88
2023-03-28T09:59:58.729Z,1.50
2023-03-28T10:02:32.882Z,1.30
2023-03-28T10:05:23.521Z,1.80
2023-03-28T10:07:58.875Z,1.40
2023-03-28T10:10:32.797Z,1.98
2023-03-28T10:13:05.704Z,1.52
2023-03-28T10:15:42.012Z,1.65
2023-03-28T10:18:31.258Z,2.25
2023-03-28T10:21:24.393Z,1.63
2023-03-28T10:24:08.776Z,2.38
2023-03-28T10:26:37.228Z,2.13
2023-03-28T10:29:08.394Z,2.00
2023-03-28T10:31:43.099Z,2.13
2023-03-28T10:34:30.503Z,1.90
2023-03-28T10:37:27.896Z,2.05
2023-03-28T10:40:20.888Z,1.75
2023-03-28T10:42:58.244Z,3.45
2023-03-28T10:45:51.411Z,3.15
2023-03-28T10:48:39.364Z,2.22
2023-03-28T10:51:18.028Z,2.10
2023-03-28T10:54:16.677Z,1.83
2023-03-28T10:56:52.585Z,2.05
2023-03-28T10:59:49.735Z,3.00
2023-03-28T11:02:27.324Z,2.60
2023-03-28T11:05:15.367Z,2.92
2023-03-28T11:07:59.113Z,3.03
2023-03-28T11:10:56.813Z,2.97
2023-03-28T11:13:52.736Z,2.58
2023-03-28T11:16:41.905Z,2.80
2023-03-28T11:19:55.016Z,2.60
2023-03-28T11:23:04.728Z,2.40
2023-03-28T11:26:09.592Z,2.53
2023-03-28T11:29:41.989Z,3.15
2023-03-28T11:32:18.718Z,2.83
2023-03-28T11:35:02.271Z,2.90
2023-03-28T11:38:11.020Z,3.25
2023-03-28T11:41:00.801Z,3.45
2023-03-28T11:44:22.036Z,3.00
2023-03-28T11:47:12.240Z,2.85
2023-03-28T11:49:46.181Z,3.33
2023-03-28T11:52:40.906Z,3.10
2023-03-28T11:55:20.754Z,3.90
2023-03-28T11:58:02.340Z,3.45
2023-03-28T12:00:34.444Z,3.70
2023-03-28T12:03:24.066Z,3.45
2023-03-28T12:06:05.249Z,3.97
2023-03-28T12:09:17.937Z,3.20
2023-03-28T12:12:14.560Z,3.25
2023-03-28T12:15:00.516Z,3.40
2023-03-28T12:18:02.966Z,2.78
2023-03-28T12:20:51.824Z,3.55
2023-03-28T12:23:42.796Z,3.00
2023-03-28T12:27:06.766Z,3.72
2023-03-28T12:29:46.312Z,3.10
2023-03-28T12:32:42.296Z,4.53
2023-03-28T12:35:23.707Z,2.80
2023-03-28T12:38:32.393Z,3.33
2023-03-28T12:41:21.059Z,3.10
2023-03-28T12:43:55.450Z,3.92
2023-03-28T12:46:46.313Z,2.83
2023-03-28T12:49:39.389Z,4.43
2023-03-28T12:52:16.038Z,3.67
2023-03-28T12:54:59.560Z,3.33
2023-03-28T12:57:43.845Z,3.03
2023-03-28T13:01:07.317Z,4.18
2023-03-28T13:03:57.620Z,3.13
2023-03-28T13:07:12.449Z,3.00
2023-03-28T13:09:52.878Z,2.90
2023-03-28T13:12:53.107Z,2.97
2023-03-28T13:15:34.126Z,2.67
2023-03-28T13:18:26.003Z,3.40
2023-03-28T13:20:54.072Z,3.58
2023-03-28T13:23:47.591Z,3.55
2023-03-28T13:28:48.795Z,3.40
2023-03-28T13:31:24.960Z,3.55
2023-03-28T13:33:59.979Z,3.47
2023-03-28T13:36:35.891Z,3.65
2023-03-28T13:39:18.609Z,3.35
2023-03-28T13:41:45.722Z,3.13
2023-03-28T13:44:16.819Z,3.35
2023-03-28T13:46:45.943Z,3.50
2023-03-28T13:49:19.321Z,2.58
2023-03-28T13:51:59.624Z,3.85
2023-03-28T13:54:30.166Z,2.63
2023-03-28T13:57:12.928Z,3.13
2023-03-28T14:00:02.312Z,3.08
2023-03-28T14:02:44.956Z,3.35
2023-03-28T14:05:33.402Z,3.40
2023-03-28T14:08:16.042Z,3.28
2023-03-28T14:10:44.727Z,4.23
2023-03-28T14:13:21.276Z,3.35
2023-03-28T14:15:52.563Z,3.55
2023-03-28T14:18:29.145Z,3.85
2023-03-28T14:20:56.598Z,4.55
2023-03-28T14:23:30.695Z,3.90
2023-03-28T14:26:00.861Z,4.75
2023-03-28T14:28:40.017Z,4.25
2023-03-28T14:31:28.125Z,4.30
2023-03-28T14:33:58.416Z,4.15
2023-03-28T14:36:31.021Z,3.88
2023-03-28T14:39:13.370Z,4.03
2023-03-28T14:41:43.469Z,3.83
2023-03-28T14:44:12.988Z,3.17
2023-03-28T14:46:40.440Z,3.80
2023-03-28T14:49:10.153Z,4.00
2023-03-28T14:51:46.002Z,3.53
2023-03-28T14:54:16.658Z,3.45
2023-03-28T14:56:45.589Z,3.20
2023-03-28T14:59:19.681Z,2.70
2023-03-28T15:01:48.999Z,2.97
2023-03-28T15:04:18.989Z,3.90
2023-03-28T15:06:54.696Z,2.90
2023-03-28T15:09:33.602Z,2.90
2023-03-28T15:12:06.656Z,3.38
2023-03-28T15:17:21.395Z,3.40
2023-03-28T15:20:00.012Z,2.97
2023-03-28T15:22:29.912Z,3.25
2023-03-28T15:24:58.094Z,2.97
2023-03-28T15:27:35.108Z,2.42
2023-03-28T15:30:17.981Z,3.00
2023-03-28T15:32:45.438Z,3.63
2023-03-28T15:35:37.855Z,3.63
2023-03-28T15:41:09.483Z,3.47
2023-03-28T15:43:56.054Z,3.70
2023-03-28T15:46:30.138Z,3.78
2023-03-28T15:49:02.215Z,4.63
2023-03-28T15:51:30.538Z,3.95
2023-03-28T15:54:01.298Z,4.82
2023-03-28T15:56:32.003Z,4.30
2023-03-28T15:59:04.326Z,4.90
2023-03-28T16:01:36.180Z,5.03
2023-03-28T16:04:24.926Z,4.60
2023-03-28T16:07:12.750Z,4.60
2023-03-28T16:09:43.063Z,4.53
2023-03-28T16:12:15.536Z,4.35
2023-03-28T16:14:52.899Z,4.47
2023-03-28T16:17:45.249Z,4.90
2023-03-28T16:20:25.557Z,4.07
2023-03-28T16:22:59.509Z,4.35
2023-03-28T16:25:27.935Z,4.68
2023-03-28T16:27:56.897Z,4.40
2023-03-28T16:30:30.730Z,4.10
2023-03-28T16:32:58.733Z,4.30
2023-03-28T16:35:29.583Z,4.00
2023-03-28T16:37:56.701Z,3.92
2023-03-28T16:40:27.753Z,4.03
2023-03-28T16:42:58.676Z,4.13
2023-03-28T16:45:35.211Z,5.28
2023-03-28T16:48:04.641Z,4.63
2023-03-28T16:50:35.585Z,4.40
2023-03-28T16:53:06.569Z,4.93
2023-03-28T16:55:33.668Z,4.47
2023-03-28T16:58:02.978Z,4.75
2023-03-28T17:00:38.395Z,5.70
2023-03-28T17:03:06.678Z,5.68
2023-03-28T17:05:36.661Z,5.05
2023-03-28T17:08:06.464Z,6.20
2023-03-28T17:10:39.070Z,5.30
2023-03-28T17:13:07.001Z,5.55
2023-03-28T17:15:35.024Z,5.45
2023-03-28T17:22:00.236Z,6.10
2023-03-28T17:24:50.571Z,5.68
2023-03-28T17:27:31.926Z,5.72
2023-03-28T17:30:11.806Z,6.30
2023-03-28T17:32:45.125Z,6.10
2023-03-28T17:35:45.284Z,6.28
2023-03-28T17:38:19.996Z,6.97
2023-03-28T17:40:48.437Z,6.28
2023-03-28T17:43:16.045Z,5.93
2023-03-28T17:45:43.591Z,6.32
2023-03-28T17:48:12.571Z,6.25
2023-03-28T17:50:40.074Z,6.13
2023-03-28T17:53:07.228Z,6.35
2023-03-28T17:55:34.549Z,7.03
2023-03-28T17:58:02.215Z,6.07
2023-03-28T18:00:31.485Z,6.93
2023-03-28T18:02:58.841Z,7.03
2023-03-28T18:05:50.827Z,6.68
2023-03-28T18:08:17.995Z,6.50
2023-03-28T18:10:49.171Z,7.20
2023-03-28T18:13:17.291Z,8.30
2023-03-28T18:15:44.693Z,7.35
2023-03-28T18:18:14.435Z,7.38
2023-03-28T18:20:44.664Z,7.28
2023-03-28T18:23:12.048Z,6.70
2023-03-28T18:25:39.652Z,8.23
2023-03-28T18:28:07.793Z,7.82
2023-03-28T18:30:35.377Z,8.75
2023-03-28T18:33:03.142Z,8.02
2023-03-28T18:35:30.578Z,8.48
2023-03-28T18:37:57.929Z,11.80
2023-03-28T18:40:25.214Z,14.80
2023-03-28T18:42:52.304Z,13.20
2023-03-28T18:45:19.509Z,9.70
2023-03-28T18:47:46.721Z,9.88
2023-03-28T18:50:15.195Z,9.63
2023-03-28T18:52:43.037Z,10.15
2023-03-28T18:55:12.314Z,9.90
2023-03-28T18:57:40.305Z,9.75
2023-03-28T19:00:20.389Z,10.20
2023-03-28T19:02:49.321Z,10.73
2023-03-28T19:05:17.306Z,10.95
2023-03-28T19:07:45.323Z,10.68
2023-03-28T19:10:13.517Z,12.45
2023-03-28T19:12:41.788Z,12.10
2023-03-28T19:15:11.201Z,10.68
2023-03-28T19:17:41.254Z,12.82
2023-03-28T19:20:12.799Z,13.25
2023-03-28T19:22:40.792Z,12.85
2023-03-28T19:25:09.768Z,12.60
2023-03-28T19:27:37.837Z,14.70
2023-03-28T19:30:06.590Z,12.93
2023-03-28T19:32:33.850Z,12.32
2023-03-28T19:35:03.602Z,12.52
2023-03-28T19:37:30.901Z,13.57
2023-03-28T19:39:59.548Z,14.27
2023-03-28T19:42:26.822Z,12.65
2023-03-28T19:44:54.158Z,13.43
2023-03-28T19:47:21.703Z,14.38
2023-03-28T19:49:49.361Z,14.02
2023-03-28T19:52:16.480Z,13.05
2023-03-28T19:54:43.626Z,14.82
2023-03-28T19:57:10.999Z,13.43
2023-03-28T19:59:38.235Z,13.98
2023-03-28T20:02:05.419Z,13.55
2023-03-28T20:04:32.583Z,12.98
2023-03-28T20:06:59.718Z,12.50
2023-03-28T20:09:27.141Z,12.80
2023-03-28T20:11:54.310Z,13.20
2023-03-28T20:14:21.652Z,12.40
2023-03-28T20:16:49.170Z,11.90
2023-03-28T20:19:18.056Z,12.15
2023-03-28T20:21:45.209Z,11.68
2023-03-28T20:24:12.325Z,11.70
2023-03-28T20:26:39.988Z,11.00
2023-03-28T20:29:10.518Z,11.65
2023-03-28T20:31:37.721Z,10.63
2023-03-28T20:34:05.026Z,10.45
2023-03-28T20:36:33.003Z,11.02
2023-03-28T20:39:01.342Z,10.55
2023-03-28T20:41:29.895Z,10.88
2023-03-28T20:44:03.164Z,9.60
2023-03-28T20:46:36.818Z,10.43
2023-03-28T20:49:06.129Z,9.70
2023-03-28T20:51:36.358Z,10.45
2023-03-28T20:54:05.447Z,7.83
2023-03-28T20:56:32.756Z,9.20
2023-03-28T20:58:59.920Z,9.85
2023-03-28T21:01:33.985Z,9.48
2023-03-28T21:04:01.578Z,9.45
2023-03-28T21:06:30.614Z,9.82
2023-03-28T21:09:00.616Z,8.63
2023-03-28T21:11:35.486Z,10.45
2023-03-28T21:14:03.913Z,9.93
2023-03-28T21:16:32.506Z,9.85
2023-03-28T21:19:01.700Z,9.50
2023-03-28T21:21:30.074Z,10.43
2023-03-28T21:23:57.368Z,9.48
2023-03-28T21:26:25.341Z,9.57
2023-03-28T21:28:52.942Z,8.40
2023-03-28T21:31:25.995Z,9.18
2023-03-28T21:33:56.979Z,8.90
2023-03-28T21:36:25.277Z,8.60
2023-03-28T21:38:53.036Z,8.38
2023-03-28T21:41:20.441Z,9.52
2023-03-28T21:43:49.293Z,9.13
2023-03-28T21:46:19.129Z,8.25
2023-03-28T21:48:47.864Z,8.63
2023-03-28T21:51:15.959Z,8.20
2023-03-28T21:53:47.211Z,8.38
2023-03-28T21:56:16.369Z,8.98
2023-03-28T21:58:43.870Z,8.98
2023-03-28T22:01:14.895Z,8.73
2023-03-28T22:03:42.011Z,10.27
2023-03-28T22:06:09.314Z,10.73
2023-03-28T22:08:36.695Z,10.07
2023-03-28T22:11:10.883Z,9.77
2023-03-28T22:13:38.807Z,9.32
2023-03-28T22:16:09.375Z,9.35
2023-03-28T22:18:39.146Z,10.23
2023-03-28T22:21:06.358Z,9.68
2023-03-28T22:23:33.433Z,9.02
2023-03-28T22:26:00.407Z,8.35
2023-03-28T22:28:27.409Z,8.98
2023-03-28T22:31:20.330Z,8.88
2023-03-28T22:33:47.619Z,8.65
2023-03-28T22:36:14.791Z,8.75
2023-03-28T22:38:41.822Z,9.23
2023-03-28T22:41:11.145Z,8.90
2023-03-28T22:43:38.973Z,9.57
2023-03-28T22:46:06.215Z,8.85
2023-03-28T22:48:33.312Z,9.70
2023-03-28T22:51:01.658Z,8.43
2023-03-28T22:53:28.938Z,9.55
2023-03-28T22:55:57.752Z,9.00
2023-03-28T22:58:26.309Z,8.38
2023-03-28T23:00:54.881Z,7.90
2023-03-28T23:03:22.288Z,8.07
2023-03-28T23:05:51.554Z,7.35
2023-03-28T23:08:18.530Z,7.90
2023-03-28T23:10:47.193Z,7.80
2023-03-28T23:13:14.104Z,7.65
2023-03-28T23:15:41.009Z,7.47
2023-03-28T23:18:08.497Z,7.55
2023-03-28T23:20:35.793Z,7.47
2023-03-28T23:23:02.734Z,6.88
2023-03-28T23:25:29.702Z,7.53
2023-03-28T23:27:56.621Z,6.38
2023-03-28T23:30:23.595Z,6.80
2023-03-28T23:32:50.660Z,6.10
2023-03-28T23:35:18.080Z,6.47
2023-03-28T23:37:45.133Z,6.82
2023-03-28T23:40:16.274Z,7.30
2023-03-28T23:42:44.716Z,7.90
2023-03-28T23:45:13.877Z,7.65
2023-03-28T23:47:41.462Z,8.57
2023-03-28T23:50:11.116Z,7.70
2023-03-28T23:52:38.268Z,7.32
2023-03-28T23:55:07.879Z,8.45
2023-03-28T23:57:34.971Z,7.55
